RYR78JL LFBO-EGCC
Flight info
| Callsign | RYR78JL |
|---|---|
| Flight time | 1h 44m |
| Altitude | 36000 |
| Route | LACOU DCT CHALA DCT CNA DCT MANAK UY110 TIRAV UT501 USODA UM184 EKRAS UN867 GARMI N867 AVANT M184 HEMEL T420 ELVOS |
| Aircraft | B738/M-SDE2E3FGHIRWXY/LB1 |
Departure
| Time | 2026-05-06 17:08 |
|---|---|
| Airport | Toulouse-Blagnac Airport (LFBO) |
Arrival
| Time | 2026-05-06 18:53 |
|---|---|
| Airport | Manchester Airport (EGCC) |
| Time | Latitude | Longitude | Altitude | Speed | Heading |
|---|---|---|---|---|---|
| 2026-05-06 16:51 | 43.62979 | 1.37315 | 508 ft | 0 kts | 40° |
| 2026-05-06 16:58 | 43.62976 | 1.37312 | 508 ft | 2 kts | 42° |
| 2026-05-06 16:58 | 43.62965 | 1.37297 | 508 ft | 2 kts | 45° |
| 2026-05-06 16:59 | 43.62954 | 1.37282 | 508 ft | 2 kts | 44° |
| 2026-05-06 16:59 | 43.62944 | 1.37269 | 508 ft | 2 kts | 43° |
| 2026-05-06 16:59 | 43.62936 | 1.37252 | 508 ft | 2 kts | 75° |
| 2026-05-06 16:59 | 43.62935 | 1.37231 | 508 ft | 2 kts | 101° |
| 2026-05-06 17:00 | 43.62940 | 1.37212 | 508 ft | 2 kts | 129° |
| 2026-05-06 17:00 | 43.62952 | 1.37199 | 508 ft | 2 kts | 147° |
| 2026-05-06 17:00 | 43.62964 | 1.37186 | 508 ft | 2 kts | 140° |
| 2026-05-06 17:00 | 43.62975 | 1.37174 | 508 ft | 1 kts | 143° |
| 2026-05-06 17:01 | 43.62976 | 1.37173 | 508 ft | 0 kts | 143° |
| 2026-05-06 17:02 | 43.62975 | 1.37174 | 508 ft | 0 kts | 143° |
| 2026-05-06 17:02 | 43.62949 | 1.37193 | 508 ft | 7 kts | 169° |
| 2026-05-06 17:03 | 43.62883 | 1.37149 | 508 ft | 14 kts | 228° |
| 2026-05-06 17:03 | 43.62804 | 1.37064 | 508 ft | 14 kts | 179° |
| 2026-05-06 17:03 | 43.62712 | 1.37141 | 508 ft | 16 kts | 143° |
| 2026-05-06 17:03 | 43.62618 | 1.37239 | 508 ft | 17 kts | 142° |
| 2026-05-06 17:04 | 43.62585 | 1.37273 | 508 ft | 18 kts | 143° |
| 2026-05-06 17:04 | 43.62503 | 1.37358 | 508 ft | 17 kts | 143° |
| 2026-05-06 17:04 | 43.62495 | 1.37366 | 508 ft | 13 kts | 142° |
| 2026-05-06 17:04 | 43.62479 | 1.37383 | 508 ft | 2 kts | 142° |
| 2026-05-06 17:05 | 43.62450 | 1.37412 | 508 ft | 8 kts | 143° |
| 2026-05-06 17:05 | 43.62387 | 1.37478 | 508 ft | 14 kts | 142° |
| 2026-05-06 17:05 | 43.62293 | 1.37577 | 508 ft | 19 kts | 143° |
| 2026-05-06 17:05 | 43.62170 | 1.37701 | 508 ft | 22 kts | 143° |
| 2026-05-06 17:06 | 43.62042 | 1.37835 | 508 ft | 23 kts | 142° |
| 2026-05-06 17:06 | 43.61911 | 1.37971 | 508 ft | 23 kts | 143° |
| 2026-05-06 17:06 | 43.61786 | 1.38101 | 508 ft | 21 kts | 143° |
| 2026-05-06 17:06 | 43.61673 | 1.38168 | 508 ft | 15 kts | 197° |
| 2026-05-06 17:07 | 43.61607 | 1.38072 | 508 ft | 12 kts | 234° |
| 2026-05-06 17:07 | 43.61611 | 1.37975 | 508 ft | 12 kts | 315° |
| 2026-05-06 17:07 | 43.61751 | 1.37828 | 508 ft | 54 kts | 322° |
| 2026-05-06 17:07 | 43.62242 | 1.37318 | 508 ft | 118 kts | 322° |
| 2026-05-06 17:08 | 43.63035 | 1.36491 | 510 ft | 168 kts | 321° |
| 2026-05-06 17:08 | 43.63980 | 1.35532 | 1079 ft | 170 kts | 321° |
| 2026-05-06 17:08 | 43.64921 | 1.34493 | 1704 ft | 174 kts | 319° |
| 2026-05-06 17:08 | 43.65889 | 1.33424 | 2147 ft | 188 kts | 320° |
| 2026-05-06 17:09 | 43.66962 | 1.32241 | 2354 ft | 210 kts | 319° |
| 2026-05-06 17:09 | 43.68154 | 1.30920 | 2709 ft | 227 kts | 319° |
| 2026-05-06 17:09 | 43.69420 | 1.29510 | 3155 ft | 242 kts | 319° |
| 2026-05-06 17:09 | 43.70747 | 1.28050 | 3739 ft | 252 kts | 319° |
| 2026-05-06 17:10 | 43.72245 | 1.26740 | 4361 ft | 263 kts | 335° |
| 2026-05-06 17:10 | 43.74018 | 1.26018 | 5123 ft | 267 kts | 344° |
| 2026-05-06 17:10 | 43.75829 | 1.25463 | 5839 ft | 271 kts | 344° |
| 2026-05-06 17:10 | 43.77640 | 1.24740 | 6580 ft | 271 kts | 334° |
| 2026-05-06 17:11 | 43.79339 | 1.23690 | 7330 ft | 270 kts | 330° |
| 2026-05-06 17:11 | 43.81028 | 1.22569 | 8048 ft | 272 kts | 330° |
| 2026-05-06 17:11 | 43.82733 | 1.21441 | 8769 ft | 273 kts | 330° |
| 2026-05-06 17:11 | 43.84442 | 1.20315 | 9472 ft | 275 kts | 330° |
| 2026-05-06 17:12 | 43.86164 | 1.19184 | 10148 ft | 277 kts | 330° |
| 2026-05-06 17:12 | 43.87958 | 1.17999 | 10300 ft | 299 kts | 330° |
| 2026-05-06 17:12 | 43.89901 | 1.16714 | 10373 ft | 322 kts | 330° |
| 2026-05-06 17:12 | 43.91945 | 1.15371 | 10834 ft | 330 kts | 331° |
| 2026-05-06 17:13 | 43.94036 | 1.14002 | 11424 ft | 335 kts | 331° |
| 2026-05-06 17:13 | 43.96138 | 1.12626 | 12133 ft | 335 kts | 331° |
| 2026-05-06 17:13 | 43.98238 | 1.11248 | 12750 ft | 339 kts | 331° |
| 2026-05-06 17:13 | 44.00388 | 1.09834 | 13402 ft | 342 kts | 330° |
| 2026-05-06 17:14 | 44.02529 | 1.08426 | 14037 ft | 345 kts | 330° |
| 2026-05-06 17:14 | 44.04694 | 1.06999 | 14669 ft | 348 kts | 330° |
| 2026-05-06 17:14 | 44.06859 | 1.05571 | 15290 ft | 351 kts | 330° |
| 2026-05-06 17:14 | 44.09077 | 1.04107 | 15912 ft | 354 kts | 330° |
| 2026-05-06 17:15 | 44.11310 | 1.02631 | 16514 ft | 357 kts | 330° |
| 2026-05-06 17:15 | 44.13544 | 1.01153 | 17097 ft | 360 kts | 330° |
| 2026-05-06 17:15 | 44.15817 | 0.99649 | 17668 ft | 363 kts | 330° |
| 2026-05-06 17:15 | 44.18095 | 0.98139 | 18239 ft | 366 kts | 330° |
| 2026-05-06 17:16 | 44.20385 | 0.96621 | 18773 ft | 369 kts | 329° |
| 2026-05-06 17:16 | 44.22687 | 0.95093 | 19317 ft | 371 kts | 329° |
| 2026-05-06 17:16 | 44.25019 | 0.93545 | 19846 ft | 374 kts | 329° |
| 2026-05-06 17:16 | 44.27371 | 0.91981 | 20367 ft | 377 kts | 329° |
| 2026-05-06 17:17 | 44.29762 | 0.90388 | 20867 ft | 379 kts | 329° |
| 2026-05-06 17:17 | 44.32105 | 0.88749 | 21364 ft | 381 kts | 328° |
| 2026-05-06 17:17 | 44.34463 | 0.87052 | 21831 ft | 384 kts | 327° |
| 2026-05-06 17:17 | 44.36829 | 0.85345 | 22316 ft | 386 kts | 327° |
| 2026-05-06 17:18 | 44.39221 | 0.83619 | 22765 ft | 388 kts | 327° |
| 2026-05-06 17:18 | 44.41610 | 0.81898 | 23224 ft | 390 kts | 327° |
| 2026-05-06 17:18 | 44.44013 | 0.80165 | 23627 ft | 394 kts | 327° |
| 2026-05-06 17:18 | 44.46447 | 0.78410 | 24079 ft | 395 kts | 327° |
| 2026-05-06 17:19 | 44.48889 | 0.76647 | 24487 ft | 398 kts | 327° |
| 2026-05-06 17:19 | 44.51381 | 0.74849 | 24903 ft | 400 kts | 327° |
| 2026-05-06 17:19 | 44.53837 | 0.73075 | 25276 ft | 403 kts | 327° |
| 2026-05-06 17:19 | 44.56336 | 0.71267 | 25675 ft | 405 kts | 327° |
| 2026-05-06 17:20 | 44.58825 | 0.69466 | 26048 ft | 407 kts | 327° |
| 2026-05-06 17:20 | 44.61346 | 0.67639 | 26392 ft | 410 kts | 327° |
| 2026-05-06 17:20 | 44.63859 | 0.65818 | 26757 ft | 412 kts | 326° |
| 2026-05-06 17:20 | 44.66415 | 0.63962 | 27097 ft | 414 kts | 326° |
| 2026-05-06 17:21 | 44.68964 | 0.62110 | 27456 ft | 416 kts | 326° |
| 2026-05-06 17:21 | 44.71539 | 0.60238 | 27779 ft | 418 kts | 326° |
| 2026-05-06 17:21 | 44.74134 | 0.58349 | 28110 ft | 420 kts | 326° |
| 2026-05-06 17:21 | 44.76732 | 0.56456 | 28401 ft | 423 kts | 326° |
| 2026-05-06 17:22 | 44.79315 | 0.54572 | 28710 ft | 425 kts | 326° |
| 2026-05-06 17:22 | 44.81939 | 0.52656 | 29007 ft | 427 kts | 326° |
| 2026-05-06 17:22 | 44.84592 | 0.50717 | 29332 ft | 428 kts | 326° |
| 2026-05-06 17:22 | 44.87231 | 0.48787 | 29622 ft | 430 kts | 326° |
| 2026-05-06 17:23 | 44.89856 | 0.46868 | 30030 ft | 428 kts | 326° |
| 2026-05-06 17:23 | 44.92493 | 0.44937 | 30414 ft | 427 kts | 326° |
| 2026-05-06 17:23 | 44.95114 | 0.43014 | 30765 ft | 427 kts | 326° |
| 2026-05-06 17:23 | 44.97762 | 0.41070 | 31095 ft | 427 kts | 326° |
| 2026-05-06 17:24 | 45.00386 | 0.39140 | 31419 ft | 427 kts | 326° |
| 2026-05-06 17:24 | 45.03012 | 0.37205 | 31683 ft | 428 kts | 326° |
| 2026-05-06 17:24 | 45.05643 | 0.35264 | 32007 ft | 428 kts | 326° |
| 2026-05-06 17:24 | 45.08270 | 0.33321 | 32299 ft | 429 kts | 325° |
| 2026-05-06 17:25 | 45.10918 | 0.31361 | 32573 ft | 430 kts | 325° |
| 2026-05-06 17:25 | 45.13560 | 0.29406 | 32917 ft | 429 kts | 325° |
| 2026-05-06 17:25 | 45.16188 | 0.27460 | 33214 ft | 429 kts | 325° |
| 2026-05-06 17:25 | 45.18815 | 0.25516 | 33525 ft | 429 kts | 325° |
| 2026-05-06 17:26 | 45.21470 | 0.23548 | 33856 ft | 428 kts | 325° |
| 2026-05-06 17:26 | 45.24087 | 0.21605 | 34136 ft | 427 kts | 324° |
| 2026-05-06 17:26 | 45.26706 | 0.19658 | 34446 ft | 426 kts | 324° |
| 2026-05-06 17:26 | 45.29316 | 0.17715 | 34726 ft | 426 kts | 324° |
| 2026-05-06 17:27 | 45.31927 | 0.15706 | 34986 ft | 424 kts | 322° |
| 2026-05-06 17:27 | 45.34394 | 0.13541 | 35290 ft | 419 kts | 319° |
| 2026-05-06 17:27 | 45.36705 | 0.11048 | 35512 ft | 413 kts | 311° |
| 2026-05-06 17:27 | 45.38761 | 0.08278 | 35819 ft | 408 kts | 309° |
| 2026-05-06 17:28 | 45.40769 | 0.05425 | 36005 ft | 409 kts | 308° |
| 2026-05-06 17:28 | 45.44756 | -0.00302 | 35998 ft | 407 kts | 308° |
| 2026-05-06 17:29 | 45.48706 | -0.06009 | 36000 ft | 404 kts | 308° |
| 2026-05-06 17:29 | 45.52650 | -0.11733 | 36000 ft | 405 kts | 308° |
| 2026-05-06 17:30 | 45.56585 | -0.17465 | 35999 ft | 405 kts | 308° |
| 2026-05-06 17:30 | 45.60513 | -0.23195 | 36000 ft | 405 kts | 308° |
| 2026-05-06 17:31 | 45.64430 | -0.28924 | 36000 ft | 405 kts | 308° |
| 2026-05-06 17:31 | 45.68718 | -0.34249 | 36000 ft | 412 kts | 315° |
| 2026-05-06 17:32 | 45.73204 | -0.39313 | 36000 ft | 412 kts | 315° |
| 2026-05-06 17:32 | 45.77701 | -0.44392 | 35999 ft | 411 kts | 315° |
| 2026-05-06 17:33 | 45.82178 | -0.49449 | 36000 ft | 411 kts | 315° |
| 2026-05-06 17:33 | 45.86650 | -0.54520 | 36000 ft | 412 kts | 315° |
| 2026-05-06 17:34 | 45.91153 | -0.59631 | 35999 ft | 412 kts | 315° |
| 2026-05-06 17:34 | 45.95631 | -0.64725 | 35996 ft | 412 kts | 315° |
| 2026-05-06 17:35 | 46.00104 | -0.69832 | 35987 ft | 411 kts | 314° |
| 2026-05-06 17:35 | 46.04572 | -0.74943 | 35975 ft | 410 kts | 314° |
| 2026-05-06 17:36 | 46.11234 | -0.82578 | 35966 ft | 411 kts | 314° |
| 2026-05-06 17:36 | 46.15696 | -0.87706 | 35966 ft | 411 kts | 314° |
| 2026-05-06 17:37 | 46.20167 | -0.92854 | 35965 ft | 410 kts | 314° |
| 2026-05-06 17:37 | 46.24632 | -0.98006 | 35967 ft | 411 kts | 314° |
| 2026-05-06 17:38 | 46.29069 | -1.03141 | 35965 ft | 409 kts | 315° |
| 2026-05-06 17:38 | 46.33461 | -1.08231 | 35965 ft | 406 kts | 315° |
| 2026-05-06 17:39 | 46.37862 | -1.13346 | 35966 ft | 404 kts | 315° |
| 2026-05-06 17:39 | 46.42236 | -1.18435 | 35966 ft | 403 kts | 315° |
| 2026-05-06 17:40 | 46.46587 | -1.23507 | 35966 ft | 402 kts | 315° |
| 2026-05-06 17:40 | 46.50915 | -1.28559 | 35966 ft | 402 kts | 315° |
| 2026-05-06 17:41 | 46.55319 | -1.33621 | 35965 ft | 405 kts | 319° |
| 2026-05-06 17:41 | 46.60355 | -1.37419 | 35965 ft | 420 kts | 336° |
| 2026-05-06 17:42 | 46.66207 | -1.38629 | 35966 ft | 437 kts | 353° |
| 2026-05-06 17:42 | 46.72297 | -1.38283 | 35966 ft | 441 kts | 355° |
| 2026-05-06 17:43 | 46.78419 | -1.37836 | 35966 ft | 441 kts | 355° |
| 2026-05-06 17:43 | 46.84520 | -1.37399 | 35965 ft | 440 kts | 355° |
| 2026-05-06 17:44 | 46.90623 | -1.36964 | 35966 ft | 441 kts | 355° |
| 2026-05-06 17:44 | 46.96733 | -1.36534 | 35965 ft | 442 kts | 352° |
| 2026-05-06 17:45 | 47.02865 | -1.36773 | 35967 ft | 444 kts | 347° |
| 2026-05-06 17:45 | 47.09084 | -1.37193 | 35966 ft | 447 kts | 347° |
| 2026-05-06 17:46 | 47.15253 | -1.37606 | 35965 ft | 445 kts | 347° |
| 2026-05-06 17:46 | 47.21419 | -1.38010 | 35966 ft | 444 kts | 347° |
| 2026-05-06 17:47 | 47.27581 | -1.38410 | 35966 ft | 445 kts | 347° |
| 2026-05-06 17:47 | 47.33748 | -1.38807 | 35966 ft | 445 kts | 347° |
| 2026-05-06 17:48 | 47.39921 | -1.39203 | 35965 ft | 445 kts | 347° |
| 2026-05-06 17:48 | 47.46081 | -1.39597 | 35966 ft | 446 kts | 347° |
| 2026-05-06 17:49 | 47.52242 | -1.39991 | 35965 ft | 445 kts | 347° |
| 2026-05-06 17:49 | 47.58416 | -1.40387 | 35966 ft | 445 kts | 347° |
| 2026-05-06 17:50 | 47.64603 | -1.40784 | 35965 ft | 444 kts | 347° |
| 2026-05-06 17:50 | 47.70731 | -1.41180 | 35966 ft | 445 kts | 347° |
| 2026-05-06 17:51 | 47.76907 | -1.41629 | 35965 ft | 444 kts | 346° |
| 2026-05-06 17:51 | 47.83034 | -1.42095 | 35966 ft | 444 kts | 346° |
| 2026-05-06 17:52 | 47.89203 | -1.42562 | 35965 ft | 444 kts | 346° |
| 2026-05-06 17:52 | 47.95361 | -1.43028 | 35966 ft | 444 kts | 346° |
| 2026-05-06 17:53 | 48.01500 | -1.43492 | 35966 ft | 444 kts | 346° |
| 2026-05-06 17:53 | 48.07648 | -1.43943 | 35965 ft | 444 kts | 346° |
| 2026-05-06 17:54 | 48.13811 | -1.44382 | 35966 ft | 444 kts | 346° |
| 2026-05-06 17:54 | 48.19947 | -1.44822 | 35966 ft | 444 kts | 346° |
| 2026-05-06 17:55 | 48.26134 | -1.45267 | 35966 ft | 445 kts | 346° |
| 2026-05-06 17:55 | 48.32289 | -1.45710 | 35966 ft | 445 kts | 346° |
| 2026-05-06 17:56 | 48.38421 | -1.46152 | 35965 ft | 444 kts | 346° |
| 2026-05-06 17:56 | 48.44612 | -1.46601 | 35966 ft | 444 kts | 346° |
| 2026-05-06 17:57 | 48.50816 | -1.47063 | 35967 ft | 455 kts | 347° |
| 2026-05-06 17:57 | 48.57169 | -1.47526 | 35965 ft | 458 kts | 347° |
| 2026-05-06 17:58 | 48.63497 | -1.47979 | 35965 ft | 456 kts | 347° |
| 2026-05-06 17:58 | 48.69842 | -1.48440 | 35966 ft | 456 kts | 347° |
| 2026-05-06 17:59 | 48.76157 | -1.48903 | 35966 ft | 456 kts | 347° |
| 2026-05-06 17:59 | 48.82477 | -1.49367 | 35967 ft | 456 kts | 347° |
| 2026-05-06 18:00 | 48.88788 | -1.49804 | 35974 ft | 459 kts | 349° |
| 2026-05-06 18:00 | 48.95229 | -1.49308 | 35984 ft | 467 kts | 354° |
| 2026-05-06 18:01 | 49.01706 | -1.48528 | 35989 ft | 470 kts | 353° |
| 2026-05-06 18:01 | 49.08254 | -1.47737 | 35992 ft | 478 kts | 352° |
| 2026-05-06 18:02 | 49.14934 | -1.46944 | 35994 ft | 485 kts | 351° |
| 2026-05-06 18:02 | 49.21651 | -1.46157 | 35992 ft | 485 kts | 352° |
| 2026-05-06 18:03 | 49.28335 | -1.45363 | 35992 ft | 482 kts | 351° |
| 2026-05-06 18:03 | 49.34989 | -1.44572 | 35993 ft | 483 kts | 351° |
| 2026-05-06 18:04 | 49.41692 | -1.43772 | 35993 ft | 484 kts | 352° |
| 2026-05-06 18:04 | 49.48370 | -1.42970 | 35993 ft | 483 kts | 352° |
| 2026-05-06 18:05 | 49.55051 | -1.42164 | 35993 ft | 483 kts | 352° |
| 2026-05-06 18:05 | 49.61745 | -1.41397 | 35993 ft | 481 kts | 350° |
| 2026-05-06 18:06 | 49.68393 | -1.40822 | 35993 ft | 480 kts | 350° |
| 2026-05-06 18:06 | 49.75051 | -1.40250 | 35993 ft | 481 kts | 350° |
| 2026-05-06 18:07 | 49.81706 | -1.39670 | 35993 ft | 481 kts | 350° |
| 2026-05-06 18:07 | 49.88332 | -1.39087 | 35993 ft | 481 kts | 350° |
| 2026-05-06 18:08 | 49.95020 | -1.38495 | 35993 ft | 481 kts | 350° |
| 2026-05-06 18:08 | 50.01670 | -1.37651 | 35993 ft | 490 kts | 355° |
| 2026-05-06 18:09 | 50.08421 | -1.36005 | 35993 ft | 492 kts | 356° |
| 2026-05-06 18:09 | 50.15188 | -1.34304 | 35993 ft | 492 kts | 356° |
| 2026-05-06 18:10 | 50.21909 | -1.32618 | 35993 ft | 492 kts | 356° |
| 2026-05-06 18:10 | 50.28662 | -1.30923 | 35993 ft | 492 kts | 356° |
| 2026-05-06 18:11 | 50.34278 | -1.29512 | 35993 ft | 492 kts | 356° |
| 2026-05-06 18:11 | 50.42137 | -1.27533 | 35993 ft | 492 kts | 356° |
| 2026-05-06 18:12 | 50.48873 | -1.25890 | 35988 ft | 500 kts | 2° |
| 2026-05-06 18:12 | 50.52208 | -1.24243 | 35998 ft | 512 kts | 9° |
| 2026-05-06 18:12 | 50.55544 | -1.22211 | 35995 ft | 515 kts | 11° |
| 2026-05-06 18:13 | 50.62210 | -1.18016 | 35992 ft | 515 kts | 11° |
| 2026-05-06 18:13 | 50.68815 | -1.13860 | 35993 ft | 513 kts | 11° |
| 2026-05-06 18:14 | 50.75430 | -1.09695 | 35993 ft | 511 kts | 11° |
| 2026-05-06 18:14 | 50.82031 | -1.05532 | 35993 ft | 510 kts | 11° |
| 2026-05-06 18:15 | 50.88579 | -1.01393 | 35993 ft | 509 kts | 11° |
| 2026-05-06 18:15 | 50.95126 | -0.97229 | 35993 ft | 511 kts | 10° |
| 2026-05-06 18:16 | 51.01756 | -0.92999 | 35993 ft | 515 kts | 9° |
| 2026-05-06 18:16 | 51.08407 | -0.88759 | 35993 ft | 519 kts | 9° |
| 2026-05-06 18:17 | 51.15043 | -0.84525 | 35992 ft | 517 kts | 9° |
| 2026-05-06 18:17 | 51.21727 | -0.80242 | 35993 ft | 516 kts | 9° |
| 2026-05-06 18:18 | 51.28341 | -0.75990 | 35993 ft | 517 kts | 9° |
| 2026-05-06 18:18 | 51.35010 | -0.71686 | 35993 ft | 517 kts | 9° |
| 2026-05-06 18:19 | 51.41674 | -0.67371 | 35993 ft | 517 kts | 9° |
| 2026-05-06 18:19 | 51.48301 | -0.63066 | 35993 ft | 517 kts | 9° |
| 2026-05-06 18:20 | 51.54955 | -0.58730 | 35993 ft | 517 kts | 9° |
| 2026-05-06 18:20 | 51.61586 | -0.54384 | 35989 ft | 508 kts | 9° |
| 2026-05-06 18:21 | 51.68012 | -0.50160 | 35994 ft | 501 kts | 8° |
| 2026-05-06 18:21 | 51.74546 | -0.46383 | 35994 ft | 485 kts | 358° |
| 2026-05-06 18:22 | 51.77783 | -0.45513 | 35993 ft | 469 kts | 348° |
| 2026-05-06 18:22 | 51.80953 | -0.45591 | 35992 ft | 442 kts | 335° |
| 2026-05-06 18:22 | 51.83902 | -0.46557 | 35997 ft | 424 kts | 328° |
| 2026-05-06 18:22 | 51.86606 | -0.48050 | 35990 ft | 406 kts | 319° |
| 2026-05-06 18:23 | 51.89063 | -0.50123 | 35996 ft | 392 kts | 314° |
| 2026-05-06 18:23 | 51.91389 | -0.52375 | 35993 ft | 390 kts | 313° |
| 2026-05-06 18:23 | 51.95973 | -0.56881 | 35559 ft | 383 kts | 313° |
| 2026-05-06 18:24 | 51.98236 | -0.59100 | 35075 ft | 379 kts | 312° |
| 2026-05-06 18:24 | 52.00478 | -0.61298 | 34621 ft | 375 kts | 312° |
| 2026-05-06 18:24 | 52.02682 | -0.63460 | 34173 ft | 371 kts | 312° |
| 2026-05-06 18:24 | 52.04898 | -0.65636 | 33724 ft | 367 kts | 312° |
| 2026-05-06 18:25 | 52.07057 | -0.67763 | 33282 ft | 363 kts | 312° |
| 2026-05-06 18:25 | 52.09196 | -0.69871 | 32847 ft | 359 kts | 312° |
| 2026-05-06 18:25 | 52.11294 | -0.71940 | 32417 ft | 355 kts | 312° |
| 2026-05-06 18:25 | 52.13410 | -0.74027 | 31982 ft | 351 kts | 312° |
| 2026-05-06 18:26 | 52.15478 | -0.76070 | 31557 ft | 348 kts | 312° |
| 2026-05-06 18:26 | 52.17532 | -0.78099 | 31137 ft | 345 kts | 313° |
| 2026-05-06 18:26 | 52.19585 | -0.80141 | 30723 ft | 349 kts | 313° |
| 2026-05-06 18:26 | 52.21650 | -0.82196 | 30294 ft | 349 kts | 313° |
| 2026-05-06 18:27 | 52.23713 | -0.84236 | 29866 ft | 346 kts | 313° |
| 2026-05-06 18:27 | 52.25739 | -0.86237 | 29608 ft | 340 kts | 313° |
| 2026-05-06 18:27 | 52.29805 | -0.90283 | 29616 ft | 347 kts | 313° |
| 2026-05-06 18:28 | 52.33941 | -0.94405 | 29618 ft | 349 kts | 314° |
| 2026-05-06 18:28 | 52.38064 | -0.98504 | 29619 ft | 346 kts | 313° |
| 2026-05-06 18:29 | 52.42153 | -1.02597 | 29309 ft | 348 kts | 314° |
| 2026-05-06 18:29 | 52.44213 | -1.04665 | 28732 ft | 348 kts | 314° |
| 2026-05-06 18:29 | 52.46262 | -1.06718 | 28299 ft | 345 kts | 314° |
| 2026-05-06 18:30 | 52.48301 | -1.08763 | 27794 ft | 344 kts | 314° |
| 2026-05-06 18:30 | 52.50337 | -1.10809 | 27310 ft | 342 kts | 315° |
| 2026-05-06 18:30 | 52.52359 | -1.12843 | 26833 ft | 340 kts | 315° |
| 2026-05-06 18:30 | 52.54357 | -1.14855 | 26360 ft | 339 kts | 315° |
| 2026-05-06 18:31 | 52.56350 | -1.16863 | 25892 ft | 337 kts | 315° |
| 2026-05-06 18:31 | 52.58339 | -1.18869 | 25428 ft | 336 kts | 315° |
| 2026-05-06 18:31 | 52.60336 | -1.20884 | 24965 ft | 334 kts | 316° |
| 2026-05-06 18:31 | 52.62279 | -1.22843 | 24317 ft | 332 kts | 316° |
| 2026-05-06 18:32 | 52.64228 | -1.24817 | 23621 ft | 328 kts | 316° |
| 2026-05-06 18:32 | 52.66147 | -1.26757 | 22941 ft | 325 kts | 316° |
| 2026-05-06 18:32 | 52.68075 | -1.28712 | 22241 ft | 322 kts | 316° |
| 2026-05-06 18:32 | 52.69952 | -1.30618 | 21558 ft | 319 kts | 317° |
| 2026-05-06 18:33 | 52.71837 | -1.32535 | 20877 ft | 316 kts | 317° |
| 2026-05-06 18:33 | 52.73667 | -1.34399 | 20213 ft | 313 kts | 317° |
| 2026-05-06 18:33 | 52.75515 | -1.36281 | 19697 ft | 309 kts | 317° |
| 2026-05-06 18:33 | 52.77349 | -1.38155 | 19235 ft | 309 kts | 318° |
| 2026-05-06 18:34 | 52.79159 | -1.40003 | 18827 ft | 307 kts | 318° |
| 2026-05-06 18:34 | 52.80974 | -1.41858 | 18431 ft | 305 kts | 318° |
| 2026-05-06 18:34 | 52.82757 | -1.43681 | 18037 ft | 304 kts | 319° |
| 2026-05-06 18:34 | 52.84557 | -1.45524 | 17643 ft | 302 kts | 319° |
| 2026-05-06 18:35 | 52.86333 | -1.47346 | 17254 ft | 300 kts | 319° |
| 2026-05-06 18:35 | 52.88088 | -1.49146 | 16868 ft | 298 kts | 319° |
| 2026-05-06 18:35 | 52.89858 | -1.50964 | 16478 ft | 297 kts | 319° |
| 2026-05-06 18:35 | 52.91603 | -1.52759 | 16094 ft | 295 kts | 319° |
| 2026-05-06 18:36 | 52.93325 | -1.54530 | 15714 ft | 293 kts | 320° |
| 2026-05-06 18:36 | 52.95064 | -1.56322 | 15330 ft | 292 kts | 320° |
| 2026-05-06 18:36 | 52.96781 | -1.58092 | 14952 ft | 290 kts | 320° |
| 2026-05-06 18:36 | 52.98490 | -1.59856 | 14574 ft | 289 kts | 320° |
| 2026-05-06 18:37 | 53.00169 | -1.61590 | 14204 ft | 288 kts | 320° |
| 2026-05-06 18:37 | 53.01316 | -1.62776 | 13949 ft | 287 kts | 320° |
| 2026-05-06 18:37 | 53.03562 | -1.65101 | 13446 ft | 287 kts | 320° |
| 2026-05-06 18:37 | 53.05228 | -1.66928 | 13061 ft | 282 kts | 313° |
| 2026-05-06 18:38 | 53.06581 | -1.69172 | 12706 ft | 276 kts | 304° |
| 2026-05-06 18:38 | 53.07835 | -1.71633 | 12336 ft | 281 kts | 303° |
| 2026-05-06 18:38 | 53.08960 | -1.74211 | 11948 ft | 273 kts | 289° |
| 2026-05-06 18:38 | 53.09470 | -1.77141 | 11594 ft | 259 kts | 275° |
| 2026-05-06 18:39 | 53.09799 | -1.80143 | 11223 ft | 259 kts | 276° |
| 2026-05-06 18:39 | 53.10201 | -1.83072 | 10811 ft | 263 kts | 278° |
| 2026-05-06 18:39 | 53.10663 | -1.85993 | 10409 ft | 265 kts | 279° |
| 2026-05-06 18:40 | 53.11655 | -1.91957 | 9620 ft | 267 kts | 279° |
| 2026-05-06 18:40 | 53.12156 | -1.94931 | 9264 ft | 267 kts | 279° |
| 2026-05-06 18:40 | 53.12654 | -1.97896 | 8926 ft | 266 kts | 280° |
| 2026-05-06 18:40 | 53.13158 | -2.00901 | 8401 ft | 274 kts | 280° |
| 2026-05-06 18:41 | 53.13667 | -2.03960 | 7990 ft | 276 kts | 280° |
| 2026-05-06 18:41 | 53.14179 | -2.07032 | 7691 ft | 273 kts | 281° |
| 2026-05-06 18:41 | 53.14684 | -2.10080 | 7238 ft | 277 kts | 281° |
| 2026-05-06 18:41 | 53.15185 | -2.13170 | 6943 ft | 275 kts | 281° |
| 2026-05-06 18:42 | 53.15683 | -2.16181 | 6715 ft | 270 kts | 281° |
| 2026-05-06 18:42 | 53.16103 | -2.19253 | 6361 ft | 265 kts | 278° |
| 2026-05-06 18:42 | 53.16491 | -2.22177 | 6086 ft | 256 kts | 279° |
| 2026-05-06 18:42 | 53.16882 | -2.25018 | 5801 ft | 248 kts | 280° |
| 2026-05-06 18:43 | 53.17242 | -2.27844 | 5304 ft | 250 kts | 278° |
| 2026-05-06 18:43 | 53.17596 | -2.30652 | 5043 ft | 241 kts | 278° |
| 2026-05-06 18:43 | 53.17957 | -2.33333 | 4605 ft | 241 kts | 279° |
| 2026-05-06 18:43 | 53.18145 | -2.36108 | 4089 ft | 241 kts | 262° |
| 2026-05-06 18:44 | 53.17650 | -2.38749 | 3631 ft | 237 kts | 240° |
| 2026-05-06 18:44 | 53.16890 | -2.41161 | 3477 ft | 238 kts | 239° |
| 2026-05-06 18:44 | 53.16115 | -2.43583 | 3384 ft | 231 kts | 239° |
| 2026-05-06 18:44 | 53.15368 | -2.45944 | 3321 ft | 228 kts | 239° |
| 2026-05-06 18:45 | 53.14610 | -2.48305 | 3245 ft | 238 kts | 239° |
| 2026-05-06 18:45 | 53.13855 | -2.50679 | 3210 ft | 228 kts | 239° |
| 2026-05-06 18:45 | 53.13116 | -2.53022 | 3179 ft | 227 kts | 239° |
| 2026-05-06 18:45 | 53.12630 | -2.54563 | 2989 ft | 225 kts | 239° |
| 2026-05-06 18:46 | 53.11717 | -2.57723 | 3008 ft | 233 kts | 251° |
| 2026-05-06 18:46 | 53.11626 | -2.60359 | 2969 ft | 231 kts | 282° |
| 2026-05-06 18:46 | 53.12362 | -2.62632 | 2997 ft | 222 kts | 317° |
| 2026-05-06 18:46 | 53.13696 | -2.63827 | 3016 ft | 220 kts | 352° |
| 2026-05-06 18:47 | 53.15197 | -2.63598 | 2996 ft | 217 kts | 25° |
| 2026-05-06 18:47 | 53.16562 | -2.62590 | 2993 ft | 216 kts | 29° |
| 2026-05-06 18:47 | 53.17872 | -2.61381 | 2989 ft | 213 kts | 36° |
| 2026-05-06 18:47 | 53.19045 | -2.59909 | 2986 ft | 208 kts | 49° |
| 2026-05-06 18:48 | 53.19987 | -2.58184 | 3001 ft | 195 kts | 54° |
| 2026-05-06 18:48 | 53.20850 | -2.56440 | 3005 ft | 198 kts | 55° |
| 2026-05-06 18:48 | 53.21692 | -2.54724 | 2970 ft | 187 kts | 55° |
| 2026-05-06 18:48 | 53.22514 | -2.53040 | 2994 ft | 185 kts | 55° |
| 2026-05-06 18:49 | 53.23322 | -2.51385 | 2993 ft | 186 kts | 55° |
| 2026-05-06 18:49 | 53.24144 | -2.49702 | 2993 ft | 183 kts | 55° |
| 2026-05-06 18:49 | 53.24954 | -2.48039 | 2829 ft | 186 kts | 55° |
| 2026-05-06 18:49 | 53.25767 | -2.46372 | 2582 ft | 179 kts | 55° |
| 2026-05-06 18:50 | 53.26501 | -2.44863 | 2358 ft | 164 kts | 55° |
| 2026-05-06 18:50 | 53.27231 | -2.43365 | 2149 ft | 165 kts | 54° |
| 2026-05-06 18:50 | 53.27948 | -2.41890 | 1923 ft | 157 kts | 53° |
| 2026-05-06 18:50 | 53.28607 | -2.40534 | 1730 ft | 149 kts | 54° |
| 2026-05-06 18:51 | 53.29282 | -2.39142 | 1518 ft | 160 kts | 54° |
| 2026-05-06 18:51 | 53.29975 | -2.37716 | 1294 ft | 152 kts | 53° |
| 2026-05-06 18:51 | 53.30633 | -2.36358 | 1089 ft | 153 kts | 54° |
| 2026-05-06 18:51 | 53.31293 | -2.34999 | 864 ft | 151 kts | 53° |
| 2026-05-06 18:52 | 53.31949 | -2.33650 | 669 ft | 147 kts | 53° |
| 2026-05-06 18:52 | 53.32600 | -2.32303 | 473 ft | 149 kts | 53° |
| 2026-05-06 18:52 | 53.33259 | -2.30943 | 283 ft | 148 kts | 52° |
| 2026-05-06 18:52 | 53.33825 | -2.29764 | 260 ft | 104 kts | 51° |
| 2026-05-06 18:53 | 53.34156 | -2.29080 | 260 ft | 48 kts | 52° |
| 2026-05-06 18:53 | 53.34289 | -2.28806 | 260 ft | 17 kts | 50° |
| 2026-05-06 18:53 | 53.34372 | -2.28668 | 260 ft | 16 kts | 39° |
| 2026-05-06 18:53 | 53.34470 | -2.28566 | 260 ft | 16 kts | 23° |
| 2026-05-06 18:54 | 53.34571 | -2.28496 | 260 ft | 15 kts | 23° |
| 2026-05-06 18:54 | 53.34678 | -2.28421 | 260 ft | 17 kts | 25° |
| 2026-05-06 18:54 | 53.34769 | -2.28279 | 260 ft | 18 kts | 51° |
| 2026-05-06 18:54 | 53.34853 | -2.28110 | 260 ft | 19 kts | 51° |
| 2026-05-06 18:55 | 53.34944 | -2.27924 | 260 ft | 21 kts | 50° |
| 2026-05-06 18:55 | 53.35035 | -2.27735 | 260 ft | 20 kts | 52° |
| 2026-05-06 18:55 | 53.35124 | -2.27546 | 260 ft | 20 kts | 52° |
| 2026-05-06 18:55 | 53.35213 | -2.27361 | 260 ft | 20 kts | 52° |
| 2026-05-06 18:56 | 53.35305 | -2.27174 | 260 ft | 21 kts | 51° |
| 2026-05-06 18:56 | 53.35402 | -2.26972 | 260 ft | 22 kts | 51° |
| 2026-05-06 18:56 | 53.35501 | -2.26771 | 260 ft | 19 kts | 49° |
| 2026-05-06 18:56 | 53.35595 | -2.26638 | 260 ft | 17 kts | 13° |
| 2026-05-06 18:57 | 53.35706 | -2.26660 | 260 ft | 14 kts | 349° |
| 2026-05-06 18:57 | 53.35803 | -2.26678 | 260 ft | 14 kts | 353° |
| 2026-05-06 18:57 | 53.35905 | -2.26706 | 260 ft | 14 kts | 353° |
| 2026-05-06 18:57 | 53.35993 | -2.26751 | 260 ft | 11 kts | 327° |
| 2026-05-06 18:58 | 53.36038 | -2.26811 | 260 ft | 6 kts | 321° |
| 2026-05-06 18:58 | 53.36062 | -2.26844 | 260 ft | 0 kts | 321° |